createdAt,value
2022-10-22T00:00:18.104Z,1.87
2022-10-22T00:01:17.974Z,1.93
2022-10-22T00:02:18.038Z,1.93
2022-10-22T00:03:18.043Z,1.85
2022-10-22T00:04:18.003Z,1.83
2022-10-22T00:05:18.239Z,1.83
2022-10-22T00:06:18.043Z,1.85
2022-10-22T00:07:18.576Z,1.86
2022-10-22T00:08:18.308Z,1.87
2022-10-22T00:09:18.167Z,1.8
2022-10-22T00:10:18.282Z,1.82
2022-10-22T00:11:19.095Z,1.81
2022-10-22T00:12:18.184Z,1.87
2022-10-22T00:13:18.727Z,1.9
2022-10-22T00:14:20.455Z,1.83
2022-10-22T00:15:18.616Z,1.87
2022-10-22T00:16:18.351Z,1.81
2022-10-22T00:17:18.420Z,1.73
2022-10-22T00:18:18.215Z,1.77
2022-10-22T00:19:18.413Z,1.79
2022-10-22T00:20:18.455Z,1.75
2022-10-22T00:21:18.268Z,1.83
2022-10-22T00:22:18.293Z,1.86
2022-10-22T00:23:18.305Z,1.7
2022-10-22T00:24:18.539Z,1.79
2022-10-22T00:25:18.330Z,1.87
2022-10-22T00:26:18.475Z,1.77
2022-10-22T00:27:18.600Z,1.84
2022-10-22T00:28:18.391Z,1.84
2022-10-22T00:29:18.394Z,1.81
2022-10-22T00:30:18.495Z,1.83
2022-10-22T00:31:18.420Z,1.86
2022-10-22T00:32:18.448Z,1.92
2022-10-22T00:33:18.498Z,1.97
2022-10-22T00:34:19.604Z,1.92
2022-10-22T00:35:18.905Z,1.87
2022-10-22T00:36:18.489Z,1.86
2022-10-22T00:37:18.529Z,1.87
2022-10-22T00:38:18.772Z,1.87
2022-10-22T00:39:19.581Z,1.71
2022-10-22T00:40:18.840Z,1.76
2022-10-22T00:41:18.644Z,1.88
2022-10-22T00:42:20.662Z,1.87
2022-10-22T00:43:19.709Z,1.98
2022-10-22T00:45:24.681Z,1.97
2022-10-22T00:46:23.661Z,1.86
2022-10-22T00:47:25.083Z,1.75
2022-10-22T00:48:27.948Z,1.64
2022-10-22T00:49:24.573Z,1.84
2022-10-22T00:50:28.279Z,1.68
2022-10-22T00:51:27.390Z,1.71
2022-10-22T00:52:25.411Z,1.58
2022-10-22T00:54:26.035Z,1.49
2022-10-22T00:55:27.902Z,1.47
2022-10-22T00:56:26.165Z,1.41
2022-10-22T00:57:26.276Z,1.43
2022-10-22T00:58:27.667Z,1.46
2022-10-22T00:59:26.300Z,1.41
2022-10-22T01:00:26.299Z,1.44
2022-10-22T01:01:27.942Z,1.46
2022-10-22T01:02:26.339Z,1.44
2022-10-22T01:03:26.161Z,1.42
2022-10-22T01:04:26.309Z,1.4
2022-10-22T01:05:27.464Z,1.36
2022-10-22T01:06:28.184Z,1.36
2022-10-22T01:07:26.403Z,1.47
2022-10-22T01:13:49.946Z,1.62
2022-10-22T01:30:29.199Z,2.13
2022-10-22T01:32:33.366Z,2.17
2022-10-22T01:33:31.050Z,2.16
2022-10-22T01:34:31.887Z,2.17
2022-10-22T01:35:38.822Z,2.23
2022-10-22T01:36:35.736Z,2.24
2022-10-22T01:37:38.560Z,2.26
2022-10-22T01:38:36.173Z,2.31
2022-10-22T01:39:36.600Z,2.4
2022-10-22T01:40:36.275Z,2.49
2022-10-22T01:41:35.494Z,2.5
2022-10-22T01:42:35.140Z,2.53
2022-10-22T01:43:35.131Z,2.56
2022-10-22T01:45:40.052Z,2.63
2022-10-22T01:46:37.083Z,2.65
2022-10-22T01:47:43.463Z,2.63
2022-10-22T02:00:08.294Z,3.18
2022-10-22T02:01:11.253Z,3.17
2022-10-22T02:03:21.305Z,3.14
2022-10-22T02:04:28.565Z,3.12
2022-10-22T02:05:24.496Z,3.13
2022-10-22T02:06:22.214Z,3.15
2022-10-22T02:07:22.746Z,3.17
2022-10-22T02:08:23.431Z,3.17
2022-10-22T02:09:22.773Z,3.16
2022-10-22T02:10:21.958Z,3.13
2022-10-22T02:11:21.177Z,3.1
2022-10-22T02:12:23.634Z,3.1
2022-10-22T02:13:24.621Z,3.07
2022-10-22T02:14:21.788Z,3.12
2022-10-22T02:15:23.550Z,3.11
2022-10-22T02:16:31.438Z,3.14
2022-10-22T02:17:26.204Z,3.14
2022-10-22T02:18:26.989Z,3.17
2022-10-22T02:19:27.983Z,3.2
2022-10-22T02:20:29.280Z,3.18
2022-10-22T02:21:26.950Z,3.12
2022-10-22T02:22:27.149Z,3.07
2022-10-22T02:23:26.200Z,3.08
2022-10-22T02:24:27.138Z,3.06
2022-10-22T02:25:29.099Z,3.07
2022-10-22T02:26:31.186Z,3.08
2022-10-22T02:27:30.675Z,3.08
2022-10-22T02:28:39.428Z,3.13
2022-10-22T02:29:36.777Z,3.12
2022-10-22T02:30:35.915Z,3.15
2022-10-22T02:31:37.352Z,3.16
2022-10-22T02:32:38.737Z,3.19
2022-10-22T02:33:38.605Z,3.19
2022-10-22T02:34:35.612Z,3.19
2022-10-22T02:35:36.431Z,3.2
2022-10-22T02:36:37.394Z,3.22
2022-10-22T02:37:36.356Z,3.29
2022-10-22T02:38:36.067Z,3.26
2022-10-22T02:39:35.927Z,3.26
2022-10-22T02:40:36.169Z,3.27
2022-10-22T02:41:37.222Z,3.32
2022-10-22T02:42:37.564Z,3.33
2022-10-22T02:43:42.286Z,3.37
2022-10-22T02:44:38.883Z,3.35
2022-10-22T02:45:38.910Z,3.33
2022-10-22T02:46:40.010Z,3.34
2022-10-22T02:47:39.123Z,3.34
2022-10-22T02:48:38.957Z,3.32
2022-10-22T02:49:39.002Z,3.34
2022-10-22T02:50:39.066Z,3.37
2022-10-22T02:51:39.036Z,3.37
2022-10-22T02:52:39.586Z,3.33
2022-10-22T02:53:39.118Z,3.3
2022-10-22T02:54:39.073Z,3.31
2022-10-22T02:55:39.336Z,3.31
2022-10-22T02:56:39.374Z,3.31
2022-10-22T02:57:39.340Z,3.32
2022-10-22T02:58:39.240Z,3.33
2022-10-22T02:59:39.186Z,3.36
2022-10-22T03:00:39.614Z,3.37
2022-10-22T03:01:39.114Z,3.38
2022-10-22T03:02:39.219Z,3.39
2022-10-22T03:03:39.906Z,3.38
2022-10-22T03:04:39.885Z,3.39
2022-10-22T03:05:40.041Z,3.4
2022-10-22T03:06:39.954Z,3.4
2022-10-22T03:07:40.176Z,3.41
2022-10-22T03:08:40.528Z,3.4
2022-10-22T03:09:40.009Z,3.38
2022-10-22T03:10:40.266Z,3.37
2022-10-22T03:11:40.076Z,3.39
2022-10-22T03:12:40.454Z,3.39
2022-10-22T03:13:40.055Z,3.4
2022-10-22T03:14:40.023Z,3.43
2022-10-22T03:15:40.088Z,3.44
2022-10-22T03:16:40.074Z,3.42
2022-10-22T03:17:40.670Z,3.41
2022-10-22T03:18:40.101Z,3.42
2022-10-22T03:19:40.369Z,3.38
2022-10-22T03:20:40.185Z,3.36
2022-10-22T03:21:50.213Z,3.41
2022-10-22T03:22:42.404Z,3.39
2022-10-22T03:23:42.630Z,3.4
2022-10-22T03:24:43.557Z,3.38
2022-10-22T03:25:43.121Z,3.38
2022-10-22T03:26:43.597Z,3.41
2022-10-22T03:27:42.875Z,3.44
2022-10-22T03:28:42.561Z,3.46
2022-10-22T03:29:42.597Z,3.43
2022-10-22T03:30:41.951Z,3.44
2022-10-22T03:31:42.186Z,3.41
2022-10-22T03:32:42.010Z,3.41
2022-10-22T03:33:41.990Z,3.44
2022-10-22T03:34:42.068Z,3.41
2022-10-22T03:35:44.950Z,3.44
2022-10-22T03:36:42.439Z,3.45
2022-10-22T03:37:42.714Z,3.46
2022-10-22T03:38:42.200Z,3.44
2022-10-22T03:39:42.448Z,3.43
2022-10-22T03:40:42.950Z,3.4
2022-10-22T03:41:42.561Z,3.46
2022-10-22T03:42:42.565Z,3.44
2022-10-22T03:43:42.218Z,3.43
2022-10-22T03:44:42.462Z,3.45
2022-10-22T03:45:42.254Z,3.48
2022-10-22T03:46:42.221Z,3.44
2022-10-22T03:47:42.680Z,3.46
2022-10-22T03:48:42.249Z,3.48
2022-10-22T03:49:42.254Z,3.48
2022-10-22T03:50:42.219Z,3.5
2022-10-22T03:51:42.513Z,3.47
2022-10-22T03:52:42.328Z,3.44
2022-10-22T03:53:42.511Z,3.48
2022-10-22T03:54:42.764Z,3.47
2022-10-22T03:55:42.395Z,3.49
2022-10-22T03:56:42.536Z,3.5
2022-10-22T03:57:42.681Z,3.5
2022-10-22T03:58:42.554Z,3.46
2022-10-22T03:59:43.927Z,3.47
2022-10-22T04:00:42.986Z,3.49
2022-10-22T04:01:43.154Z,3.48
2022-10-22T04:02:42.963Z,3.48
2022-10-22T04:03:42.990Z,3.49
2022-10-22T04:04:42.980Z,3.48
2022-10-22T04:05:42.988Z,3.51
2022-10-22T04:06:43.003Z,3.49
2022-10-22T04:07:43.319Z,3.48
2022-10-22T04:08:44.101Z,3.46
2022-10-22T04:09:43.056Z,3.47
2022-10-22T04:10:50.244Z,3.5
2022-10-22T04:11:46.878Z,3.49
2022-10-22T04:12:47.613Z,3.45
2022-10-22T04:13:46.878Z,3.47
2022-10-22T04:14:47.477Z,3.48
2022-10-22T04:15:46.922Z,3.46
2022-10-22T04:16:46.946Z,3.49
2022-10-22T04:17:47.420Z,3.53
2022-10-22T04:18:47.821Z,3.53
2022-10-22T04:19:46.964Z,3.54
2022-10-22T04:20:46.983Z,3.58
2022-10-22T04:21:46.971Z,3.56
2022-10-22T04:22:47.073Z,3.56
2022-10-22T04:23:48.040Z,3.54
2022-10-22T04:24:47.104Z,3.58
2022-10-22T04:25:47.075Z,3.58
2022-10-22T04:26:47.097Z,3.58
2022-10-22T04:27:47.162Z,3.6
2022-10-22T04:28:48.256Z,3.61
2022-10-22T04:29:47.370Z,3.62
2022-10-22T04:30:47.356Z,3.6
2022-10-22T04:31:47.415Z,3.62
2022-10-22T04:32:47.173Z,3.63
2022-10-22T04:33:47.600Z,3.64
2022-10-22T04:34:47.250Z,3.63
2022-10-22T04:35:47.276Z,3.6
2022-10-22T04:36:47.327Z,3.61
2022-10-22T04:37:47.257Z,3.6
2022-10-22T04:38:51.510Z,3.58
2022-10-22T04:39:48.161Z,3.58
2022-10-22T04:40:48.134Z,3.56
2022-10-22T04:41:48.120Z,3.62
2022-10-22T04:42:48.200Z,3.63
2022-10-22T04:43:48.610Z,3.64
2022-10-22T04:44:48.243Z,3.65
2022-10-22T04:45:48.298Z,3.65
2022-10-22T04:46:48.208Z,3.64
2022-10-22T04:47:48.522Z,3.65
2022-10-22T04:48:48.335Z,3.65
2022-10-22T04:49:48.565Z,3.65
2022-10-22T04:50:48.335Z,3.61
2022-10-22T04:51:48.392Z,3.63
2022-10-22T04:52:48.362Z,3.59
2022-10-22T04:53:48.748Z,3.64
2022-10-22T04:54:48.399Z,3.63
2022-10-22T04:55:48.455Z,3.64
2022-10-22T04:56:48.435Z,3.61
2022-10-22T04:57:48.577Z,3.6
2022-10-22T04:58:49.211Z,3.6
2022-10-22T04:59:48.475Z,3.62
2022-10-22T05:00:48.559Z,3.61
2022-10-22T05:01:48.490Z,3.62
2022-10-22T05:02:49.024Z,3.63
2022-10-22T05:03:49.337Z,3.63
2022-10-22T05:04:48.730Z,3.63
2022-10-22T05:05:48.532Z,3.63
2022-10-22T05:06:48.745Z,3.63
2022-10-22T05:07:50.519Z,3.6
2022-10-22T05:08:51.940Z,3.57
2022-10-22T05:09:48.969Z,3.6
2022-10-22T05:10:48.643Z,3.58
2022-10-22T05:11:49.819Z,3.58
2022-10-22T05:12:48.770Z,3.58
2022-10-22T05:13:49.210Z,3.57
2022-10-22T05:14:48.646Z,3.56
2022-10-22T05:15:48.744Z,3.61
2022-10-22T05:16:49.422Z,3.62
2022-10-22T05:17:48.939Z,3.57
2022-10-22T05:18:48.720Z,3.59
2022-10-22T05:19:48.708Z,3.58
2022-10-22T05:20:48.705Z,3.59
2022-10-22T05:21:48.811Z,3.6
2022-10-22T05:22:48.745Z,3.58
2022-10-22T05:23:49.920Z,3.59
2022-10-22T05:24:48.793Z,3.56
2022-10-22T05:25:48.789Z,3.56
2022-10-22T05:26:52.715Z,3.55
2022-10-22T05:27:49.617Z,3.58
2022-10-22T05:28:49.632Z,3.59
2022-10-22T05:29:49.358Z,3.58
2022-10-22T05:30:52.821Z,3.6
2022-10-22T05:31:49.860Z,3.62
2022-10-22T05:32:49.506Z,3.59
2022-10-22T05:33:49.491Z,3.59
2022-10-22T05:34:49.468Z,3.57
2022-10-22T05:35:50.269Z,3.57
2022-10-22T05:36:49.664Z,3.61
2022-10-22T05:37:49.563Z,3.62
2022-10-22T05:38:49.947Z,3.63
2022-10-22T05:39:57.569Z,3.62
2022-10-22T05:41:54.557Z,3.61
2022-10-22T05:42:54.564Z,3.65
2022-10-22T05:43:55.288Z,3.65
2022-10-22T05:44:54.621Z,3.66
2022-10-22T05:45:54.633Z,3.66
2022-10-22T05:46:54.650Z,3.64
2022-10-22T05:47:54.670Z,3.67
2022-10-22T05:48:56.267Z,3.67
2022-10-22T05:49:54.681Z,3.68
2022-10-22T05:50:54.686Z,3.67
2022-10-22T05:51:54.740Z,3.68
2022-10-22T05:52:54.746Z,3.68
2022-10-22T05:53:55.822Z,3.7
2022-10-22T05:54:54.769Z,3.69
2022-10-22T05:55:54.767Z,3.71
2022-10-22T05:56:54.788Z,3.72
2022-10-22T05:57:54.786Z,3.73
2022-10-22T05:58:55.191Z,3.74
2022-10-22T05:59:54.846Z,3.75
2022-10-22T06:00:54.873Z,3.76
2022-10-22T06:01:54.884Z,3.78
2022-10-22T06:02:54.842Z,3.8
2022-10-22T06:03:55.894Z,3.8
2022-10-22T06:04:54.897Z,3.81
2022-10-22T06:05:54.900Z,3.84
2022-10-22T06:06:54.942Z,3.85
2022-10-22T06:07:55.751Z,3.86
2022-10-22T06:08:55.953Z,3.89
2022-10-22T06:09:55.052Z,3.87
2022-10-22T06:10:55.007Z,3.91
2022-10-22T06:11:56.459Z,3.92
2022-10-22T06:12:55.464Z,3.9
2022-10-22T06:13:55.507Z,3.9
2022-10-22T06:14:55.556Z,3.93
2022-10-22T06:15:56.168Z,3.94
2022-10-22T06:16:55.668Z,3.98
2022-10-22T06:17:55.634Z,4
2022-10-22T06:18:55.524Z,4
2022-10-22T06:19:55.654Z,4.01
2022-10-22T06:20:55.578Z,4.03
2022-10-22T06:21:55.595Z,4.06
2022-10-22T06:22:55.612Z,4.04
2022-10-22T06:23:56.556Z,4.06
2022-10-22T06:24:55.617Z,4.06
2022-10-22T06:25:56.504Z,4.05
2022-10-22T06:26:55.697Z,4.07
2022-10-22T06:27:55.681Z,4.08
2022-10-22T06:28:55.985Z,4.08
2022-10-22T06:29:55.703Z,4.06
2022-10-22T06:30:57.553Z,4.09
2022-10-22T06:31:55.711Z,4.08
2022-10-22T06:32:55.944Z,4.08
2022-10-22T06:33:58.756Z,4.13
2022-10-22T06:34:55.734Z,4.13
2022-10-22T06:35:55.743Z,4.13
2022-10-22T06:36:55.988Z,4.17
2022-10-22T06:37:55.811Z,4.21
2022-10-22T06:38:56.240Z,4.23
2022-10-22T06:39:55.807Z,4.24
2022-10-22T06:40:55.835Z,4.23
2022-10-22T06:41:55.874Z,4.26
2022-10-22T06:42:55.850Z,4.27
2022-10-22T06:43:56.235Z,4.29
2022-10-22T06:44:55.991Z,4.3
2022-10-22T06:45:58.965Z,4.3
2022-10-22T06:46:55.954Z,4.32
2022-10-22T06:47:55.918Z,4.32
2022-10-22T06:48:59.270Z,4.29
2022-10-22T06:49:55.936Z,4.3
2022-10-22T06:50:56.246Z,4.29
2022-10-22T06:51:56.037Z,4.3
2022-10-22T06:52:55.984Z,4.3
2022-10-22T06:53:56.656Z,4.31
2022-10-22T06:54:56.011Z,4.33
2022-10-22T06:55:56.037Z,4.33
2022-10-22T06:56:56.070Z,4.31
2022-10-22T06:57:56.081Z,4.34
2022-10-22T06:58:57.503Z,4.35
2022-10-22T06:59:56.090Z,4.36
2022-10-22T07:01:57.607Z,4.34
2022-10-22T07:02:59.170Z,4.39
2022-10-22T07:03:57.720Z,4.43
2022-10-22T07:04:57.574Z,4.49
2022-10-22T07:06:01.281Z,4.56
2022-10-22T07:06:57.627Z,4.56
2022-10-22T07:07:57.597Z,4.58
2022-10-22T07:08:58.616Z,4.63
2022-10-22T07:09:57.634Z,4.71
2022-10-22T07:11:05.465Z,4.69
2022-10-22T07:12:01.688Z,4.75
2022-10-22T07:13:01.661Z,4.83
2022-10-22T07:14:01.680Z,4.81
2022-10-22T07:15:01.695Z,4.88
2022-10-22T07:16:01.917Z,4.81
2022-10-22T07:17:01.760Z,4.81
2022-10-22T07:18:01.958Z,4.83
2022-10-22T07:19:02.167Z,4.85
2022-10-22T07:20:01.771Z,4.78
2022-10-22T07:21:02.152Z,4.78
2022-10-22T07:22:01.984Z,4.82
2022-10-22T07:23:01.812Z,4.78
2022-10-22T07:24:01.825Z,4.75
2022-10-22T07:25:06.591Z,4.74
2022-10-22T07:26:04.547Z,4.73
2022-10-22T07:27:06.895Z,4.74
2022-10-22T07:28:04.660Z,4.69
2022-10-22T07:29:04.661Z,4.69
2022-10-22T07:30:04.970Z,4.69
2022-10-22T07:31:04.675Z,4.74
2022-10-22T07:32:04.898Z,4.79
2022-10-22T07:33:04.703Z,4.82
2022-10-22T07:34:04.523Z,4.88
2022-10-22T07:35:05.140Z,4.98
2022-10-22T07:36:06.467Z,4.99
2022-10-22T07:37:04.555Z,4.98
2022-10-22T07:38:05.305Z,5.04
2022-10-22T07:39:05.146Z,5.14
2022-10-22T07:40:05.147Z,5.15
2022-10-22T07:41:04.950Z,5.28
2022-10-22T07:42:04.664Z,5.2
2022-10-22T07:43:04.973Z,5.22
2022-10-22T07:44:04.615Z,5.31
2022-10-22T07:45:05.183Z,5.29
2022-10-22T07:46:04.708Z,5.34
2022-10-22T07:47:04.721Z,5.4
2022-10-22T07:48:05.272Z,5.3
2022-10-22T07:49:04.902Z,5.38
2022-10-22T07:50:05.444Z,5.34
2022-10-22T07:51:05.226Z,5.45
2022-10-22T07:52:06.166Z,5.43
2022-10-22T07:53:04.935Z,5.6
2022-10-22T07:54:04.789Z,5.59
2022-10-22T07:55:05.348Z,5.62
2022-10-22T07:56:05.161Z,5.53
2022-10-22T07:57:04.804Z,5.61
2022-10-22T07:58:04.838Z,5.65
2022-10-22T07:59:04.876Z,5.72
2022-10-22T08:00:05.790Z,5.58
2022-10-22T08:01:04.899Z,5.67
2022-10-22T08:02:04.869Z,5.77
2022-10-22T08:03:04.876Z,5.83
2022-10-22T08:04:05.550Z,5.68
2022-10-22T08:05:05.944Z,5.69
2022-10-22T08:06:05.835Z,5.77
2022-10-22T08:07:05.627Z,5.67
2022-10-22T08:08:05.892Z,5.79
2022-10-22T08:09:05.524Z,5.8
2022-10-22T08:10:06.034Z,5.86
2022-10-22T08:11:05.766Z,5.95
2022-10-22T08:12:05.986Z,5.9
2022-10-22T08:13:05.664Z,5.99
2022-10-22T08:14:05.473Z,5.99
2022-10-22T08:15:06.167Z,5.96
2022-10-22T08:16:06.013Z,5.99
2022-10-22T08:17:06.512Z,5.95
2022-10-22T08:18:05.921Z,6
2022-10-22T08:19:05.533Z,6.08
2022-10-22T08:20:06.304Z,6.15
2022-10-22T08:21:05.933Z,6.08
2022-10-22T08:22:05.594Z,6.02
2022-10-22T08:23:05.597Z,6.09
2022-10-22T08:25:06.434Z,6.19
2022-10-22T08:26:05.889Z,6.27
2022-10-22T08:27:05.639Z,6.31
2022-10-22T08:28:05.666Z,6.34
2022-10-22T08:29:05.680Z,6.35
2022-10-22T08:30:06.227Z,6.36
2022-10-22T08:31:11.112Z,6.44
2022-10-22T08:32:07.302Z,6.42
2022-10-22T08:33:07.319Z,6.36
2022-10-22T08:34:07.572Z,6.39
2022-10-22T08:35:07.360Z,6.31
2022-10-22T08:36:08.190Z,6.34
2022-10-22T08:37:07.384Z,6.38
2022-10-22T08:38:07.421Z,6.47
2022-10-22T08:39:07.405Z,6.44
2022-10-22T08:40:07.832Z,6.6
2022-10-22T08:41:09.888Z,6.68
2022-10-22T08:45:35.893Z,6.55
2022-10-22T08:47:32.920Z,6.77
2022-10-22T08:49:29.761Z,6.61
2022-10-22T08:51:31.240Z,6.59
2022-10-22T08:52:28.766Z,6.61
2022-10-22T08:55:37.482Z,6.67
2022-10-22T08:56:36.704Z,6.69
2022-10-22T08:59:46.457Z,6.84
2022-10-22T09:01:49.014Z,6.77
2022-10-22T09:06:58.064Z,6.82
2022-10-22T09:07:56.766Z,6.89
2022-10-22T09:08:57.324Z,6.93
2022-10-22T09:09:59.323Z,7.03
2022-10-22T09:11:03.405Z,7.05
2022-10-22T09:12:00.439Z,7.02
2022-10-22T09:13:00.040Z,6.95
2022-10-22T09:14:01.250Z,6.99
2022-10-22T09:15:00.066Z,7.13
2022-10-22T09:20:15.671Z,7.13
2022-10-22T09:21:19.060Z,7.13
2022-10-22T09:22:24.919Z,7.11
2022-10-22T09:24:32.955Z,7.32
2022-10-22T09:25:25.669Z,7.3
2022-10-22T09:26:22.332Z,7.32
2022-10-22T09:27:26.857Z,7.33
2022-10-22T09:28:23.699Z,7.33
2022-10-22T09:29:24.785Z,7.32
2022-10-22T09:30:24.872Z,7.33
2022-10-22T09:31:26.933Z,7.33
2022-10-22T09:32:23.839Z,7.26
2022-10-22T09:33:27.946Z,7.33
2022-10-22T09:34:24.589Z,7.31
2022-10-22T09:35:24.629Z,7.35
2022-10-22T09:36:24.774Z,7.31
2022-10-22T09:37:27.889Z,7.36
2022-10-22T09:38:26.529Z,7.32
2022-10-22T09:39:29.309Z,7.19
2022-10-22T09:40:25.970Z,7.3
2022-10-22T09:41:27.783Z,7.36
2022-10-22T09:42:26.154Z,7.47
2022-10-22T09:43:26.128Z,7.59
2022-10-22T09:44:26.108Z,7.61
2022-10-22T09:45:26.175Z,7.61
2022-10-22T09:46:29.556Z,7.49
2022-10-22T09:49:32.733Z,7.52
2022-10-22T09:52:34.203Z,7.47
2022-10-22T09:53:36.422Z,7.46
2022-10-22T09:55:33.736Z,7.53
2022-10-22T09:56:39.957Z,7.52
2022-10-22T09:57:37.895Z,7.48
2022-10-22T09:58:42.909Z,7.43
2022-10-22T09:59:40.090Z,7.55
2022-10-22T10:00:44.513Z,7.73
2022-10-22T10:01:40.721Z,7.76
2022-10-22T10:02:40.922Z,7.73
2022-10-22T10:03:40.729Z,7.75
2022-10-22T10:04:42.329Z,7.72
2022-10-22T10:05:40.743Z,7.69
2022-10-22T10:06:42.336Z,7.8
2022-10-22T10:07:41.165Z,7.84
2022-10-22T10:08:40.866Z,7.94
2022-10-22T10:09:40.854Z,7.9
2022-10-22T10:10:48.541Z,7.88
2022-10-22T10:14:57.891Z,7.89
2022-10-22T10:15:56.167Z,7.97
2022-10-22T10:16:59.997Z,8.31
2022-10-22T10:18:04.779Z,8.23
2022-10-22T10:24:26.013Z,8.2
2022-10-22T10:25:19.971Z,8.22
2022-10-22T10:27:22.160Z,8.33
2022-10-22T10:30:24.677Z,8.17
2022-10-22T10:35:36.762Z,8.36
2022-10-22T10:37:41.739Z,8.47
2022-10-22T10:45:07.952Z,8.33
2022-10-22T10:50:21.599Z,8.46
2022-10-22T10:54:33.599Z,8.26
2022-10-22T10:55:32.283Z,8.52
2022-10-22T10:56:39.289Z,8.4
2022-10-22T11:05:57.444Z,9.03
2022-10-22T11:07:10.734Z,8.83
2022-10-22T11:08:03.691Z,8.99
2022-10-22T11:09:07.128Z,8.96
2022-10-22T11:10:09.488Z,8.64
2022-10-22T11:11:18.557Z,8.74
2022-10-22T11:12:14.857Z,8.51
2022-10-22T11:17:22.908Z,8.96
2022-10-22T11:18:28.688Z,8.7
2022-10-22T11:19:49.851Z,8.54
2022-10-22T11:21:32.299Z,8.6
2022-10-22T11:22:32.168Z,8.66
2022-10-22T11:25:38.290Z,8.41
2022-10-22T11:28:40.289Z,8.48
2022-10-22T11:29:45.908Z,8.56
2022-10-22T11:30:38.890Z,8.73
2022-10-22T11:31:37.542Z,8.62
2022-10-22T11:32:38.236Z,8.3
2022-10-22T11:34:44.978Z,8.55
2022-10-22T11:35:43.570Z,8.65
2022-10-22T11:36:41.875Z,8.54
2022-10-22T11:37:44.085Z,8.64
2022-10-22T11:38:41.501Z,8.62
2022-10-22T11:41:45.012Z,8.74
2022-10-22T11:42:47.752Z,8.71
2022-10-22T11:45:57.421Z,8.82
2022-10-22T11:46:55.928Z,8.78
2022-10-22T11:51:02.962Z,8.8
2022-10-22T11:53:05.459Z,8.9
2022-10-22T11:56:22.286Z,8.94
2022-10-22T11:57:21.096Z,8.95
2022-10-22T12:01:29.419Z,8.91
2022-10-22T12:02:32.177Z,8.74
2022-10-22T12:05:34.513Z,8.55
2022-10-22T12:09:42.045Z,8.82
2022-10-22T12:11:47.922Z,9
2022-10-22T12:12:55.487Z,9.11
2022-10-22T12:14:59.391Z,9.22
2022-10-22T12:15:53.088Z,9.2
2022-10-22T12:17:56.711Z,8.9
2022-10-22T12:20:02.021Z,8.94
2022-10-22T12:20:58.962Z,9.05
2022-10-22T12:22:59.506Z,8.92
2022-10-22T12:24:00.577Z,8.93
2022-10-22T12:25:00.658Z,8.75
2022-10-22T12:25:59.615Z,8.7
2022-10-22T12:26:59.507Z,8.6
2022-10-22T12:27:59.826Z,8.7
2022-10-22T12:29:00.472Z,8.67
2022-10-22T12:30:00.716Z,8.7
2022-10-22T12:30:59.587Z,8.74
2022-10-22T12:32:03.031Z,8.75
2022-10-22T12:33:00.497Z,8.65
2022-10-22T12:34:00.080Z,8.73
2022-10-22T12:35:03.381Z,8.62
2022-10-22T12:35:59.987Z,8.71
2022-10-22T12:37:04.202Z,8.77
2022-10-22T12:38:02.957Z,8.85
2022-10-22T12:39:01.661Z,8.81
2022-10-22T12:40:00.849Z,8.83
2022-10-22T12:41:00.916Z,8.71
2022-10-22T12:42:00.887Z,8.69
2022-10-22T12:43:02.264Z,8.65
2022-10-22T12:44:01.779Z,8.74
2022-10-22T12:45:00.940Z,8.83
2022-10-22T12:46:01.030Z,8.7
2022-10-22T12:47:00.940Z,8.52
2022-10-22T12:48:02.909Z,8.64
2022-10-22T12:49:11.128Z,8.8
2022-10-22T12:50:03.563Z,8.85
2022-10-22T12:51:04.608Z,8.74
2022-10-22T12:52:09.811Z,8.7
2022-10-22T12:53:13.013Z,8.76
2022-10-22T12:54:09.259Z,8.69
2022-10-22T12:55:06.370Z,8.66
2022-10-22T12:56:07.610Z,8.66
2022-10-22T12:57:06.567Z,8.6
2022-10-22T12:58:06.797Z,8.44
2022-10-22T12:59:11.853Z,8.47
2022-10-22T13:00:19.919Z,8.52
2022-10-22T13:01:12.442Z,8.41
2022-10-22T13:02:19.408Z,8.49
2022-10-22T13:06:24.314Z,8.53
2022-10-22T13:07:22.306Z,8.49
2022-10-22T13:08:22.172Z,8.47
2022-10-22T13:09:25.163Z,8.42
2022-10-22T13:10:25.513Z,8.36
2022-10-22T13:11:23.884Z,8.44
2022-10-22T13:12:25.518Z,8.46
2022-10-22T13:16:29.594Z,8.25
2022-10-22T13:17:40.379Z,8.2
2022-10-22T13:18:32.972Z,8.24
2022-10-22T13:20:34.577Z,8.21
2022-10-22T13:21:37.768Z,8.19
2022-10-22T13:22:38.302Z,8.14
2022-10-22T13:23:34.916Z,8.24
2022-10-22T13:24:34.926Z,8.21
2022-10-22T13:25:36.270Z,8.2
2022-10-22T13:26:36.476Z,8.12
2022-10-22T13:27:43.104Z,8.12
2022-10-22T13:28:40.642Z,8.15
2022-10-22T13:29:41.300Z,8.04
2022-10-22T13:30:51.523Z,8.02
2022-10-22T13:31:46.745Z,8.06
2022-10-22T13:32:49.125Z,7.98
2022-10-22T13:33:50.285Z,7.91
2022-10-22T13:34:46.930Z,7.83
2022-10-22T13:35:46.955Z,7.81
2022-10-22T13:36:47.708Z,7.74
2022-10-22T13:37:46.988Z,7.56
2022-10-22T13:38:49.550Z,7.57
2022-10-22T13:39:47.000Z,7.66
2022-10-22T13:40:47.606Z,7.58
2022-10-22T13:41:47.124Z,7.49
2022-10-22T13:42:47.233Z,7.6
2022-10-22T13:43:47.240Z,7.51
2022-10-22T13:44:47.304Z,7.51
2022-10-22T13:45:48.693Z,7.56
2022-10-22T13:46:48.185Z,7.42
2022-10-22T13:47:51.784Z,7.43
2022-10-22T13:48:49.400Z,7.38
2022-10-22T13:49:48.724Z,7.42
2022-10-22T13:50:49.230Z,7.41
2022-10-22T13:51:49.243Z,7.34
2022-10-22T13:52:55.382Z,7.39
2022-10-22T13:53:53.338Z,7.36
2022-10-22T13:54:52.218Z,7.31
2022-10-22T13:55:52.456Z,7.31
2022-10-22T13:56:52.144Z,7.3
2022-10-22T13:57:53.171Z,7.28
2022-10-22T13:58:52.121Z,7.19
2022-10-22T13:59:52.191Z,7.26
2022-10-22T14:00:59.423Z,7.22
2022-10-22T14:01:56.160Z,7.13
2022-10-22T14:02:58.230Z,7.05
2022-10-22T14:03:57.351Z,6.99
2022-10-22T14:04:56.503Z,6.93
2022-10-22T14:05:56.712Z,6.83
2022-10-22T14:06:58.761Z,6.86
2022-10-22T14:08:00.920Z,6.82
2022-10-22T14:08:59.379Z,6.69
2022-10-22T14:09:58.116Z,6.67
2022-10-22T14:10:57.994Z,6.58
2022-10-22T14:11:58.067Z,6.53
2022-10-22T14:12:58.006Z,6.53
2022-10-22T14:13:58.705Z,6.53
2022-10-22T14:15:58.108Z,6.49
2022-10-22T14:16:58.103Z,6.36
2022-10-22T14:17:59.139Z,6.33
2022-10-22T14:18:58.334Z,6.38
2022-10-22T14:19:58.853Z,6.38
2022-10-22T14:20:59.939Z,6.31
2022-10-22T14:21:58.176Z,6.3
2022-10-22T14:23:02.238Z,6.3
2022-10-22T14:23:59.181Z,6.23
2022-10-22T14:24:58.884Z,6.23
2022-10-22T14:25:59.522Z,6.16
2022-10-22T14:26:58.950Z,6.22
2022-10-22T14:27:58.907Z,6.24
2022-10-22T14:29:15.178Z,6.15
2022-10-22T14:30:01.933Z,6.18
2022-10-22T14:31:01.861Z,6.19
2022-10-22T14:32:01.883Z,6.19
2022-10-22T14:33:01.913Z,6.24
2022-10-22T14:34:02.428Z,6.2
2022-10-22T14:35:01.959Z,6.1
2022-10-22T14:36:02.179Z,6.11
2022-10-22T14:37:01.958Z,6.1
2022-10-22T14:38:01.986Z,5.99
2022-10-22T14:39:02.005Z,6
2022-10-22T14:40:02.161Z,5.96
2022-10-22T14:41:02.171Z,5.87
2022-10-22T14:42:02.056Z,5.8
2022-10-22T14:43:02.122Z,5.69
2022-10-22T14:44:02.037Z,5.57
2022-10-22T14:45:02.098Z,5.43
2022-10-22T14:46:02.095Z,5.35
2022-10-22T14:47:02.160Z,5.37
2022-10-22T14:48:02.182Z,5.48
2022-10-22T14:49:02.180Z,5.43
2022-10-22T14:50:02.251Z,5.46
2022-10-22T14:51:02.194Z,5.46
2022-10-22T14:52:02.236Z,5.36
2022-10-22T14:53:02.438Z,5.33
2022-10-22T14:54:02.169Z,5.23
2022-10-22T14:55:02.183Z,5.21
2022-10-22T14:56:02.325Z,5.19
2022-10-22T14:57:03.497Z,5.19
2022-10-22T14:58:02.282Z,5.12
2022-10-22T14:59:02.549Z,5.12
2022-10-22T15:00:02.503Z,5.06
2022-10-22T15:01:02.906Z,5.04
2022-10-22T15:02:02.343Z,5.07
2022-10-22T15:03:04.334Z,5.2
2022-10-22T15:04:02.417Z,5.11
2022-10-22T15:05:02.819Z,4.99
2022-10-22T15:06:02.459Z,5.09
2022-10-22T15:07:02.569Z,4.93
2022-10-22T15:08:02.649Z,4.92
2022-10-22T15:09:02.518Z,4.89
2022-10-22T15:10:03.391Z,4.98
2022-10-22T15:11:04.002Z,4.96
2022-10-22T15:12:02.562Z,4.85
2022-10-22T15:13:02.781Z,4.76
2022-10-22T15:14:02.721Z,4.82
2022-10-22T15:15:03.224Z,4.89
2022-10-22T15:16:05.569Z,4.82
2022-10-22T15:17:02.647Z,4.92
2022-10-22T15:18:02.626Z,4.74
2022-10-22T15:19:02.631Z,4.73
2022-10-22T15:20:03.004Z,4.84
2022-10-22T15:21:04.588Z,4.76
2022-10-22T15:22:02.927Z,4.7
2022-10-22T15:23:02.692Z,4.65
2022-10-22T15:24:03.084Z,4.47
2022-10-22T15:25:05.031Z,4.52
2022-10-22T15:26:02.672Z,4.57
2022-10-22T15:27:03.200Z,4.4
2022-10-22T15:28:09.393Z,4.56
2022-10-22T15:29:06.548Z,4.6
2022-10-22T15:30:07.433Z,4.64
2022-10-22T15:31:07.206Z,4.5
2022-10-22T15:32:06.773Z,4.63
2022-10-22T15:33:06.566Z,4.65
2022-10-22T15:34:06.651Z,4.62
2022-10-22T15:35:07.245Z,4.68
2022-10-22T15:36:10.840Z,4.59
2022-10-22T15:37:08.509Z,4.56
2022-10-22T15:38:07.674Z,4.68
2022-10-22T15:39:08.183Z,4.52
2022-10-22T15:40:08.139Z,4.46
2022-10-22T15:41:08.294Z,4.57
2022-10-22T15:42:07.905Z,4.67
2022-10-22T15:43:07.686Z,4.63
2022-10-22T15:44:07.851Z,4.6
2022-10-22T15:45:08.500Z,4.55
2022-10-22T15:46:18.571Z,4.59
2022-10-22T15:47:10.370Z,4.54
2022-10-22T15:48:13.521Z,4.64
2022-10-22T15:49:12.437Z,4.65
2022-10-22T15:50:12.268Z,4.56
2022-10-22T15:51:14.341Z,4.41
2022-10-22T15:52:12.091Z,4.38
2022-10-22T15:53:12.303Z,4.56